Time;durP1;ratioP1;P1;durP2;ratioP2;P2;SDS_P1;SDS_P2;PMS_P1;PMS_P2;Temp;Humidity;BMP_temperature;BMP_pressure;BME280_temperature;BME280_humidity;BME280_pressure;Samples;Min_cycle;Max_cycle;Signal;HPM_P1;HPM_P2
2023/05/19 00:01:04;;;;;;;;;;;;;;;;;;4982987;28;20005;-63
2023/05/19 00:03:32;;;;;;;;;;;;;;;;;;4983025;28;19930;-63
2023/05/19 00:05:58;;;;;;;;;;;;;;;;;;4979589;28;19980;-63
2023/05/19 00:08:24;;;;;;;;;;;;;;;;;;4976454;28;19977;-63
2023/05/19 00:10:50;;;;;;;;;;;;;;;;;;4982341;28;19968;-61
2023/05/19 00:13:16;;;;;;;;;;;;;;;;;;4982272;28;19929;-63
2023/05/19 00:15:42;;;;;;;;;;;;;;;;;;4980804;28;19928;-62
2023/05/19 00:18:08;;;;;;;;;;;;;;;;;;4952809;28;19971;-63
2023/05/19 00:20:36;;;;;;;;;;;;;;;;;;4982161;28;19929;-62
2023/05/19 00:23:02;;;;;;;;;;;;;;;;;;4982564;28;19922;-62
2023/05/19 00:25:28;;;;;;;;;;;;;;;;;;4981667;28;19926;-63
2023/05/19 00:27:54;;;;;;;;;;;;;;;;;;4962779;28;20001;-62
2023/05/19 00:30:21;;;;;;;;;;;;;;;;;;4967315;28;19930;-62
2023/05/19 00:32:47;;;;;;;;;;;;;;;;;;4978659;28;19929;-62
2023/05/19 00:35:13;;;;;;;;;;;;;;;;;;4963183;28;19922;-62
2023/05/19 00:37:39;;;;;;;;;;;;;;;;;;4976410;28;19922;-62
2023/05/19 00:40:05;;;;;;;;;;;;;;;;;;4981903;28;20375;-61
2023/05/19 00:42:31;;;;;;;;;;;;;;;;;;4982621;28;19926;-62
2023/05/19 00:44:57;;;;;;;;;;;;;;;;;;4964399;28;19948;-63
2023/05/19 00:47:23;;;;;;;;;;;;;;;;;;4976807;28;19922;-61
2023/05/19 00:49:49;;;;;;;;;;;;;;;;;;4963544;28;19922;-62
2023/05/19 00:52:15;;;;;;;;;;;;;;;;;;4952278;28;19929;-62
2023/05/19 00:54:41;;;;;;;;;;;;;;;;;;4982030;28;19922;-62
2023/05/19 00:57:07;;;;;;;;;;;;;;;;;;4979412;28;20008;-61
2023/05/19 00:59:33;;;;;;;;;;;;;;;;;;4981585;28;19946;-61
2023/05/19 01:02:01;;;;;;;;;;;;;;;;;;4981532;28;19922;-60
2023/05/19 01:04:28;;;;;;;;;;;;;;;;;;4981058;28;20389;-61
2023/05/19 01:06:54;;;;;;;;;;;;;;;;;;4967689;28;19926;-61
2023/05/19 01:09:21;;;;;;;;;;;;;;;;;;4983685;28;19922;-61
2023/05/19 01:11:47;;;;;;;;;;;;;;;;;;4984910;28;19925;-61
2023/05/19 01:14:13;;;;;;;;;;;;;;;;;;4984676;28;20004;-61
2023/05/19 01:16:39;;;;;;;;;;;;;;;;;;4984551;28;20021;-61
2023/05/19 01:19:05;;;;;;;;;;;;;;;;;;4973738;28;19929;-64
2023/05/19 01:21:35;;;;;;;;;;;;;;;;;;4985390;28;19928;-61
2023/05/19 01:24:01;;;;;;;;;;;;;;;;;;4985858;28;19936;-61
2023/05/19 01:26:27;;;;;;;;;;;;;;;;;;4973929;28;19921;-61
2023/05/19 01:28:53;;;;;;;;;;;;;;;;;;4984897;28;20342;-61
2023/05/19 01:31:19;;;;;;;;;;;;;;;;;;4985412;28;20306;-61
2023/05/19 01:33:45;;;;;;;;;;;;;;;;;;4980736;28;19926;-61
2023/05/19 01:36:10;;;;;;;;;;;;;;;;;;4982896;28;19930;-60
2023/05/19 01:38:36;;;;;;;;;;;;;;;;;;4985096;28;19928;-61
2023/05/19 01:41:03;;;;;;;;;;;;;;;;;;4983574;28;19991;-61
2023/05/19 01:43:29;;;;;;;;;;;;;;;;;;4984709;28;19929;-61
2023/05/19 01:45:57;;;;;;;;;;;;;;;;;;4979670;28;20261;-61
2023/05/19 01:48:23;;;;;;;;;;;;;;;;;;4985321;28;20364;-61
2023/05/19 01:50:49;;;;;;;;;;;;;;;;;;4965804;28;19976;-61
2023/05/19 01:53:15;;;;;;;;;;;;;;;;;;4967258;28;20027;-61
2023/05/19 01:55:41;;;;;;;;;;;;;;;;;;4973299;28;19976;-61
2023/05/19 01:58:07;;;;;;;;;;;;;;;;;;4966272;28;19972;-62
2023/05/19 02:00:33;;;;;;;;;;;;;;;;;;4977641;28;19985;-61
2023/05/19 02:02:59;;;;;;;;;;;;;;;;;;4983428;28;20597;-62
2023/05/19 02:05:28;;;;;;;;;;;;;;;;;;4976068;28;20093;-61
2023/05/19 02:07:54;;;;;;;;;;;;;;;;;;4981716;28;19937;-61
2023/05/19 02:10:20;;;;;;;;;;;;;;;;;;4977939;28;19922;-60
2023/05/19 02:12:46;;;;;;;;;;;;;;;;;;4983939;28;20312;-61
2023/05/19 02:15:12;;;;;;;;;;;;;;;;;;4962561;28;19965;-60
2023/05/19 02:17:40;;;;;;;;;;;;;;;;;;4984074;28;19987;-62
2023/05/19 02:20:07;;;;;;;;;;;;;;;;;;4982366;28;19921;-61
2023/05/19 02:22:33;;;;;;;;;;;;;;;;;;4984150;28;19922;-61
2023/05/19 02:24:59;;;;;;;;;;;;;;;;;;4971899;28;19925;-61
2023/05/19 02:27:25;;;;;;;;;;;;;;;;;;4967405;28;19922;-61
2023/05/19 02:29:51;;;;;;;;;;;;;;;;;;4968003;28;19921;-61
2023/05/19 02:32:17;;;;;;;;;;;;;;;;;;4985179;28;19926;-60
2023/05/19 02:34:44;;;;;;;;;;;;;;;;;;4981869;28;19929;-60
2023/05/19 02:37:11;;;;;;;;;;;;;;;;;;4969604;28;19921;-60
2023/05/19 02:39:37;;;;;;;;;;;;;;;;;;4980461;28;19941;-61
2023/05/19 02:42:03;;;;;;;;;;;;;;;;;;4977571;28;19922;-61
2023/05/19 02:44:29;;;;;;;;;;;;;;;;;;4971328;28;20000;-61
2023/05/19 02:46:55;;;;;;;;;;;;;;;;;;4984268;28;20364;-62
2023/05/19 02:49:21;;;;;;;;;;;;;;;;;;4963178;28;19925;-62
2023/05/19 02:51:47;;;;;;;;;;;;;;;;;;4954049;28;20033;-62
2023/05/19 02:54:13;;;;;;;;;;;;;;;;;;4983009;28;19925;-62
2023/05/19 02:56:39;;;;;;;;;;;;;;;;;;4974728;28;19921;-62
2023/05/19 02:59:05;;;;;;;;;;;;;;;;;;4977126;28;20368;-62
2023/05/19 03:01:31;;;;;;;;;;;;;;;;;;4979591;28;19921;-62
2023/05/19 03:03:57;;;;;;;;;;;;;;;;;;4969596;28;19992;-62
2023/05/19 03:06:23;;;;;;;;;;;;;;;;;;4977906;28;19925;-62
2023/05/19 03:08:49;;;;;;;;;;;;;;;;;;4962906;28;20590;-61
2023/05/19 03:11:15;;;;;;;;;;;;;;;;;;4975624;28;20368;-61
2023/05/19 03:13:41;;;;;;;;;;;;;;;;;;4983201;28;19928;-60
2023/05/19 03:16:07;;;;;;;;;;;;;;;;;;4976816;28;20597;-61
2023/05/19 03:18:33;;;;;;;;;;;;;;;;;;4978887;28;19924;-60
2023/05/19 03:20:59;;;;;;;;;;;;;;;;;;4978593;28;20303;-60
2023/05/19 03:23:26;;;;;;;;;;;;;;;;;;4976905;28;19993;-60
2023/05/19 03:25:54;;;;;;;;;;;;;;;;;;4969606;28;20013;-60
2023/05/19 03:28:22;;;;;;;;;;;;;;;;;;4980262;28;20425;-61
2023/05/19 03:30:49;;;;;;;;;;;;;;;;;;4971576;28;19999;-61
2023/05/19 03:33:15;;;;;;;;;;;;;;;;;;4982115;28;19930;-60
2023/05/19 03:35:43;;;;;;;;;;;;;;;;;;4979960;28;19984;-61
2023/05/19 03:38:09;;;;;;;;;;;;;;;;;;4972885;28;20439;-61
2023/05/19 03:40:35;;;;;;;;;;;;;;;;;;4982554;28;19964;-65
2023/05/19 03:43:01;;;;;;;;;;;;;;;;;;4976861;28;19964;-61
2023/05/19 03:45:27;;;;;;;;;;;;;;;;;;4959479;28;19969;-61
2023/05/19 03:47:53;;;;;;;;;;;;;;;;;;4981805;28;20315;-60
2023/05/19 03:50:20;;;;;;;;;;;;;;;;;;4975031;28;19941;-61
2023/05/19 03:52:46;;;;;;;;;;;;;;;;;;4979707;28;19922;-61
2023/05/19 03:55:13;;;;;;;;;;;;;;;;;;4977941;28;20647;-61
2023/05/19 03:57:40;;;;;;;;;;;;;;;;;;4967970;28;19922;-61
2023/05/19 04:00:06;;;;;;;;;;;;;;;;;;4982239;28;19922;-61
2023/05/19 04:02:32;;;;;;;;;;;;;;;;;;4981162;28;19929;-61
2023/05/19 04:04:58;;;;;;;;;;;;;;;;;;4969939;28;19925;-63
2023/05/19 04:07:24;;;;;;;;;;;;;;;;;;4964772;28;20688;-62
2023/05/19 04:09:50;;;;;;;;;;;;;;;;;;4981181;28;20242;-62
2023/05/19 04:12:16;;;;;;;;;;;;;;;;;;4967777;28;20367;-61
2023/05/19 04:14:42;;;;;;;;;;;;;;;;;;4976421;28;19925;-62
2023/05/19 04:17:08;;;;;;;;;;;;;;;;;;4976650;28;20020;-62
2023/05/19 04:19:34;;;;;;;;;;;;;;;;;;4975573;28;20412;-61
2023/05/19 04:22:00;;;;;;;;;;;;;;;;;;4964580;28;19929;-62
2023/05/19 04:24:26;;;;;;;;;;;;;;;;;;4980108;28;19930;-61
2023/05/19 04:26:52;;;;;;;;;;;;;;;;;;4968630;28;19925;-61
2023/05/19 04:29:19;;;;;;;;;;;;;;;;;;4974942;28;19925;-64
2023/05/19 04:31:45;;;;;;;;;;;;;;;;;;4971033;28;20016;-64
2023/05/19 04:34:11;;;;;;;;;;;;;;;;;;4950420;28;20056;-64
2023/05/19 04:36:37;;;;;;;;;;;;;;;;;;4967664;28;20755;-64
2023/05/19 04:39:06;;;;;;;;;;;;;;;;;;4970780;28;19948;-64
2023/05/19 04:41:33;;;;;;;;;;;;;;;;;;4972702;28;19922;-65
2023/05/19 04:43:59;;;;;;;;;;;;;;;;;;4977467;28;20068;-65
2023/05/19 04:46:25;;;;;;;;;;;;;;;;;;4975203;28;20008;-64
2023/05/19 04:48:52;;;;;;;;;;;;;;;;;;4984052;28;20698;-65
2023/05/19 04:51:18;;;;;;;;;;;;;;;;;;4979079;28;19926;-62
2023/05/19 04:53:44;;;;;;;;;;;;;;;;;;4979946;28;20438;-61
2023/05/19 04:56:13;;;;;;;;;;;;;;;;;;4985700;28;19922;-62
2023/05/19 04:58:40;;;;;;;;;;;;;;;;;;4981600;28;19929;-62
2023/05/19 05:01:08;;;;;;;;;;;;;;;;;;4985410;28;19929;-62
2023/05/19 05:03:34;;;;;;;;;;;;;;;;;;4984998;28;19922;-62
2023/05/19 05:06:00;;;;;;;;;;;;;;;;;;4973996;28;19990;-62
2023/05/19 05:08:26;;;;;;;;;;;;;;;;;;4967991;28;19922;-62
2023/05/19 05:10:52;;;;;;;;;;;;;;;;;;4965529;28;19941;-62
2023/05/19 05:13:18;;;;;;;;;;;;;;;;;;4983009;28;19925;-63
2023/05/19 05:15:44;;;;;;;;;;;;;;;;;;4985051;28;19929;-62
2023/05/19 05:18:10;;;;;;;;;;;;;;;;;;4981213;28;19922;-62
2023/05/19 05:20:36;;;;;;;;;;;;;;;;;;4983658;28;20045;-62
2023/05/19 05:23:02;;;;;;;;;;;;;;;;;;4985292;28;19976;-62
2023/05/19 05:25:28;;;;;;;;;;;;;;;;;;4979454;28;19921;-64
2023/05/19 05:27:54;;;;;;;;;;;;;;;;;;4985054;28;19984;-61
2023/05/19 05:30:20;;;;;;;;;;;;;;;;;;4985188;28;20299;-63
2023/05/19 05:32:46;;;;;;;;;;;;;;;;;;4960434;28;20384;-63
2023/05/19 05:35:12;;;;;;;;;;;;;;;;;;4975314;28;19997;-62
2023/05/19 05:37:38;;;;;;;;;;;;;;;;;;4983058;28;19980;-62
2023/05/19 05:40:06;;;;;;;;;;;;;;;;;;4977588;28;20013;-62
2023/05/19 05:42:34;;;;;;;;;;;;;;;;;;4977375;28;19973;-62
2023/05/19 05:45:00;;;;;;;;;;;;;;;;;;4986695;28;19965;-62
2023/05/19 05:47:26;;;;;;;;;;;;;;;;;;4985966;28;19952;-61
2023/05/19 05:49:52;;;;;;;;;;;;;;;;;;4985582;28;20407;-62
2023/05/19 05:52:18;;;;;;;;;;;;;;;;;;4986027;28;20022;-62
2023/05/19 05:54:48;;;;;;;;;;;;;;;;;;4985311;28;20318;-62
2023/05/19 05:57:14;;;;;;;;;;;;;;;;;;4985042;28;19922;-62
2023/05/19 05:59:40;;;;;;;;;;;;;;;;;;4985876;28;20372;-62
2023/05/19 06:02:07;;;;;;;;;;;;;;;;;;4986045;28;19925;-64
2023/05/19 06:04:33;;;;;;;;;;;;;;;;;;4984999;28;19930;-61
2023/05/19 06:07:00;;;;;;;;;;;;;;;;;;4985752;28;20621;-61
2023/05/19 06:09:27;;;;;;;;;;;;;;;;;;4986482;28;19921;-61
2023/05/19 06:11:53;;;;;;;;;;;;;;;;;;4965162;28;19926;-61
2023/05/19 06:14:19;;;;;;;;;;;;;;;;;;4964158;28;19944;-63
2023/05/19 06:16:46;;;;;;;;;;;;;;;;;;4966394;28;19922;-62
2023/05/19 06:19:12;;;;;;;;;;;;;;;;;;4965531;28;19970;-61
2023/05/19 06:21:41;;;;;;;;;;;;;;;;;;4966132;28;19929;-63
2023/05/19 06:24:07;;;;;;;;;;;;;;;;;;4963685;28;19929;-62
2023/05/19 06:26:33;;;;;;;;;;;;;;;;;;4965878;28;20273;-62
2023/05/19 06:28:59;;;;;;;;;;;;;;;;;;4966425;28;19928;-62
2023/05/19 06:31:26;;;;;;;;;;;;;;;;;;4953108;28;19977;-62
2023/05/19 06:33:52;;;;;;;;;;;;;;;;;;4961581;28;19972;-63
2023/05/19 06:36:18;;;;;;;;;;;;;;;;;;4965324;28;20426;-67
2023/05/19 06:38:44;;;;;;;;;;;;;;;;;;4964355;28;19922;-66
2023/05/19 06:41:10;;;;;;;;;;;;;;;;;;4966161;28;19929;-66
2023/05/19 06:43:36;;;;;;;;;;;;;;;;;;4964287;28;19936;-66
2023/05/19 06:46:02;;;;;;;;;;;;;;;;;;4965635;28;19922;-65
2023/05/19 06:48:28;;;;;;;;;;;;;;;;;;4953733;28;20009;-68
2023/05/19 06:50:55;;;;;;;;;;;;;;;;;;4965595;28;19930;-67
2023/05/19 06:53:21;;;;;;;;;;;;;;;;;;4966199;28;19926;-66
2023/05/19 06:55:50;;;;;;;;;;;;;;;;;;4964347;28;19928;-68
2023/05/19 06:58:17;;;;;;;;;;;;;;;;;;4966165;28;19922;-68
2023/05/19 07:00:43;;;;;;;;;;;;;;;;;;4965479;28;19928;-67
2023/05/19 07:03:09;;;;;;;;;;;;;;;;;;4964235;28;19969;-67
2023/05/19 07:05:35;;;;;;;;;;;;;;;;;;4964135;28;19933;-66
2023/05/19 07:08:01;;;;;;;;;;;;;;;;;;4965845;28;19949;-68
2023/05/19 07:10:27;;;;;;;;;;;;;;;;;;4966047;28;19922;-68
2023/05/19 07:12:53;;;;;;;;;;;;;;;;;;4979569;28;19925;-67
2023/05/19 07:15:19;;;;;;;;;;;;;;;;;;4984613;28;20029;-67
2023/05/19 07:17:45;;;;;;;;;;;;;;;;;;4979732;28;19929;-67
2023/05/19 07:20:11;;;;;;;;;;;;;;;;;;4979777;28;20420;-69
2023/05/19 07:22:38;;;;;;;;;;;;;;;;;;4983978;28;19926;-67
2023/05/19 07:25:05;;;;;;;;;;;;;;;;;;4987102;28;20525;-69
2023/05/19 07:27:31;;;;;;;;;;;;;;;;;;4983783;28;19921;-69
2023/05/19 07:29:57;;;;;;;;;;;;;;;;;;4984036;28;20264;-69
2023/05/19 07:32:23;;;;;;;;;;;;;;;;;;4984094;28;19929;-67
2023/05/19 07:34:49;;;;;;;;;;;;;;;;;;4971760;28;20012;-68
2023/05/19 07:37:15;;;;;;;;;;;;;;;;;;4972875;28;20399;-67
2023/05/19 07:39:41;;;;;;;;;;;;;;;;;;4974533;28;19921;-67
2023/05/19 07:42:07;;;;;;;;;;;;;;;;;;4983270;28;19922;-68
2023/05/19 07:44:33;;;;;;;;;;;;;;;;;;4976843;28;20307;-67
2023/05/19 07:46:59;;;;;;;;;;;;;;;;;;4981393;28;19925;-67
2023/05/19 07:49:25;;;;;;;;;;;;;;;;;;4980850;28;19933;-67
2023/05/19 07:51:52;;;;;;;;;;;;;;;;;;4981242;28;19925;-67
2023/05/19 07:54:18;;;;;;;;;;;;;;;;;;4964154;28;19929;-67
2023/05/19 07:56:44;;;;;;;;;;;;;;;;;;4962352;28;19974;-65
2023/05/19 07:59:10;;;;;;;;;;;;;;;;;;4981254;28;20372;-65
2023/05/19 08:01:36;;;;;;;;;;;;;;;;;;4981147;28;20567;-65
2023/05/19 08:04:02;;;;;;;;;;;;;;;;;;4980201;28;20103;-66
2023/05/19 08:06:28;;;;;;;;;;;;;;;;;;4981505;28;19930;-65
2023/05/19 08:08:54;;;;;;;;;;;;;;;;;;4980512;28;20965;-65
2023/05/19 08:11:21;;;;;;;;;;;;;;;;;;4963022;28;19959;-65
2023/05/19 08:13:48;;;;;;;;;;;;;;;;;;4979676;28;19926;-65
2023/05/19 08:16:14;;;;;;;;;;;;;;;;;;4963017;28;19921;-65
2023/05/19 08:18:40;;;;;;;;;;;;;;;;;;4981275;28;19922;-65
2023/05/19 08:21:06;;;;;;;;;;;;;;;;;;4984806;28;20210;-66
2023/05/19 08:23:32;;;;;;;;;;;;;;;;;;4984303;28;20378;-66
2023/05/19 08:25:58;;;;;;;;;;;;;;;;;;4985067;28;20303;-65
2023/05/19 08:28:24;;;;;;;;;;;;;;;;;;4982637;28;20360;-66
2023/05/19 08:30:51;;;;;;;;;;;;;;;;;;4977633;28;20013;-66
2023/05/19 08:33:19;;;;;;;;;;;;;;;;;;4979234;28;19925;-66
2023/05/19 08:35:45;;;;;;;;;;;;;;;;;;4985735;28;20012;-64
2023/05/19 08:38:11;;;;;;;;;;;;;;;;;;4980314;28;20013;-64
2023/05/19 08:40:37;;;;;;;;;;;;;;;;;;4986350;28;20381;-66
2023/05/19 08:43:03;;;;;;;;;;;;;;;;;;4985730;28;19985;-66
2023/05/19 08:45:29;;;;;;;;;;;;;;;;;;4986908;28;20464;-65
2023/05/19 08:47:55;;;;;;;;;;;;;;;;;;4985837;28;19953;-66
2023/05/19 08:50:21;;;;;;;;;;;;;;;;;;4986817;28;19926;-66
2023/05/19 08:52:48;;;;;;;;;;;;;;;;;;4986373;28;19933;-66
2023/05/19 08:55:15;;;;;;;;;;;;;;;;;;4969407;28;19926;-66
2023/05/19 08:57:41;;;;;;;;;;;;;;;;;;4968613;28;19922;-66
2023/05/19 09:00:09;;;;;;;;;;;;;;;;;;4986556;28;20276;-67
2023/05/19 09:02:35;;;;;;;;;;;;;;;;;;4986404;28;20126;-66
2023/05/19 09:05:01;;;;;;;;;;;;;;;;;;4986052;28;20454;-65
2023/05/19 09:07:27;;;;;;;;;;;;;;;;;;4987135;28;19969;-65
2023/05/19 09:09:53;;;;;;;;;;;;;;;;;;4986448;28;20351;-66
2023/05/19 09:12:20;;;;;;;;;;;;;;;;;;4968087;28;19926;-66
2023/05/19 09:14:46;;;;;;;;;;;;;;;;;;4986035;28;19928;-65
2023/05/19 09:17:12;;;;;;;;;;;;;;;;;;4986469;28;19922;-64
2023/05/19 09:19:38;;;;;;;;;;;;;;;;;;4985464;28;19965;-65
2023/05/19 09:22:04;;;;;;;;;;;;;;;;;;4968609;28;19969;-64
2023/05/19 09:24:30;;;;;;;;;;;;;;;;;;4986430;28;19922;-64
2023/05/19 09:26:56;;;;;;;;;;;;;;;;;;4985108;28;19948;-65
2023/05/19 09:29:22;;;;;;;;;;;;;;;;;;4985941;28;20287;-65
2023/05/19 09:31:49;;;;;;;;;;;;;;;;;;4985814;28;19933;-66
2023/05/19 09:34:15;;;;;;;;;;;;;;;;;;4985517;28;19921;-66
2023/05/19 09:36:41;;;;;;;;;;;;;;;;;;4985937;28;20256;-65
2023/05/19 09:39:07;;;;;;;;;;;;;;;;;;4986214;28;20023;-64
2023/05/19 09:41:33;;;;;;;;;;;;;;;;;;4985156;28;19922;-65
2023/05/19 09:43:59;;;;;;;;;;;;;;;;;;4985681;28;19922;-65
2023/05/19 09:46:27;;;;;;;;;;;;;;;;;;4986033;28;19961;-64
2023/05/19 09:48:53;;;;;;;;;;;;;;;;;;4984959;28;19930;-64
2023/05/19 09:51:20;;;;;;;;;;;;;;;;;;4985935;28;19933;-65
2023/05/19 09:53:46;;;;;;;;;;;;;;;;;;4985271;28;20020;-65
2023/05/19 09:56:12;;;;;;;;;;;;;;;;;;4985118;28;19922;-65
2023/05/19 09:58:38;;;;;;;;;;;;;;;;;;4985391;28;19925;-65
2023/05/19 10:01:04;;;;;;;;;;;;;;;;;;4985807;28;19922;-65
2023/05/19 10:03:31;;;;;;;;;;;;;;;;;;4985236;28;19921;-64
2023/05/19 10:05:57;;;;;;;;;;;;;;;;;;4985383;28;20040;-65
2023/05/19 10:08:25;;;;;;;;;;;;;;;;;;4967978;28;19925;-65
2023/05/19 10:10:51;;;;;;;;;;;;;;;;;;4985255;28;19929;-65
2023/05/19 10:13:17;;;;;;;;;;;;;;;;;;4985038;28;19925;-63
2023/05/19 10:15:44;;;;;;;;;;;;;;;;;;4985086;28;20011;-63
2023/05/19 10:18:10;;;;;;;;;;;;;;;;;;4984514;28;20433;-64
2023/05/19 10:20:36;;;;;;;;;;;;;;;;;;4985177;28;20009;-66
2023/05/19 10:23:02;;;;;;;;;;;;;;;;;;4985201;28;19922;-65
2023/05/19 10:25:29;;;;;;;;;;;;;;;;;;4967333;28;20603;-65
2023/05/19 10:27:55;;;;;;;;;;;;;;;;;;4985044;28;19932;-65
2023/05/19 10:30:21;;;;;;;;;;;;;;;;;;4985150;28;19922;-65
2023/05/19 10:32:48;;;;;;;;;;;;;;;;;;4984271;28;19928;-66
2023/05/19 10:35:14;;;;;;;;;;;;;;;;;;4984691;28;19921;-65
2023/05/19 10:37:40;;;;;;;;;;;;;;;;;;4984709;28;19928;-65
2023/05/19 10:40:07;;;;;;;;;;;;;;;;;;4985012;28;19928;-65
2023/05/19 10:42:33;;;;;;;;;;;;;;;;;;4985040;28;19968;-64
2023/05/19 10:45:00;;;;;;;;;;;;;;;;;;4984940;28;19929;-65
2023/05/19 10:47:26;;;;;;;;;;;;;;;;;;4984673;28;19922;-65
2023/05/19 10:49:52;;;;;;;;;;;;;;;;;;4983787;28;20323;-64
2023/05/19 10:52:18;;;;;;;;;;;;;;;;;;4984244;28;19980;-64
2023/05/19 10:54:45;;;;;;;;;;;;;;;;;;4983801;28;19925;-65
2023/05/19 10:57:11;;;;;;;;;;;;;;;;;;4984879;28;20004;-64
2023/05/19 10:59:38;;;;;;;;;;;;;;;;;;4984385;28;19961;-64
2023/05/19 11:02:04;;;;;;;;;;;;;;;;;;4984922;28;19929;-65
2023/05/19 11:04:30;;;;;;;;;;;;;;;;;;4983954;28;19922;-64
2023/05/19 11:06:56;;;;;;;;;;;;;;;;;;4983860;28;19976;-64
2023/05/19 11:09:24;;;;;;;;;;;;;;;;;;4983961;28;20430;-67
2023/05/19 11:11:50;;;;;;;;;;;;;;;;;;4986042;28;19922;-66
2023/05/19 11:14:16;;;;;;;;;;;;;;;;;;4979105;28;19929;-67
2023/05/19 11:16:44;;;;;;;;;;;;;;;;;;4974981;28;19921;-66
2023/05/19 11:19:10;;;;;;;;;;;;;;;;;;4973617;28;19921;-67
2023/05/19 11:21:36;;;;;;;;;;;;;;;;;;4983061;28;19966;-66
2023/05/19 11:24:02;;;;;;;;;;;;;;;;;;4984525;28;20441;-66
2023/05/19 11:26:28;;;;;;;;;;;;;;;;;;4974481;28;19933;-69
2023/05/19 11:28:54;;;;;;;;;;;;;;;;;;4982497;28;20212;-69
2023/05/19 11:31:21;;;;;;;;;;;;;;;;;;4974641;28;20316;-68
2023/05/19 11:33:47;;;;;;;;;;;;;;;;;;4970254;28;19921;-71
2023/05/19 11:36:15;;;;;;;;;;;;;;;;;;4967598;28;19922;-72
2023/05/19 11:38:41;;;;;;;;;;;;;;;;;;4977598;28;19922;-69
2023/05/19 11:41:07;;;;;;;;;;;;;;;;;;4979050;28;20418;-68
2023/05/19 11:43:33;;;;;;;;;;;;;;;;;;4978360;28;19921;-70
2023/05/19 11:45:59;;;;;;;;;;;;;;;;;;4983859;28;19933;-69
2023/05/19 11:48:25;;;;;;;;;;;;;;;;;;4979719;28;19949;-67
2023/05/19 11:50:51;;;;;;;;;;;;;;;;;;4982100;28;19944;-68
2023/05/19 11:53:18;;;;;;;;;;;;;;;;;;4983504;28;20007;-67
2023/05/19 11:55:44;;;;;;;;;;;;;;;;;;4983846;28;19922;-67
2023/05/19 11:58:10;;;;;;;;;;;;;;;;;;4965766;28;19922;-69
2023/05/19 12:00:36;;;;;;;;;;;;;;;;;;4961212;28;19925;-69
2023/05/19 12:03:02;;;;;;;;;;;;;;;;;;4981226;28;20408;-69
2023/05/19 12:05:28;;;;;;;;;;;;;;;;;;4980951;28;19996;-69
2023/05/19 12:07:54;;;;;;;;;;;;;;;;;;4980952;28;20429;-69
2023/05/19 12:10:21;;;;;;;;;;;;;;;;;;4981064;28;20403;-68
2023/05/19 12:12:49;;;;;;;;;;;;;;;;;;4966575;28;20406;-69
2023/05/19 12:15:16;;;;;;;;;;;;;;;;;;4980723;28;19926;-69
2023/05/19 12:17:42;;;;;;;;;;;;;;;;;;4980018;28;19926;-69
2023/05/19 12:20:08;;;;;;;;;;;;;;;;;;4963472;28;19932;-68
2023/05/19 12:22:35;;;;;;;;;;;;;;;;;;4981659;28;20450;-67
2023/05/19 12:25:01;;;;;;;;;;;;;;;;;;4980610;28;20704;-67
2023/05/19 12:27:27;;;;;;;;;;;;;;;;;;4980935;28;19929;-69
2023/05/19 12:29:53;;;;;;;;;;;;;;;;;;4980056;28;19933;-68
2023/05/19 12:32:19;;;;;;;;;;;;;;;;;;4962866;28;19922;-67
2023/05/19 12:34:46;;;;;;;;;;;;;;;;;;4980310;28;19929;-68
2023/05/19 12:37:12;;;;;;;;;;;;;;;;;;4980665;28;19964;-69
2023/05/19 12:39:38;;;;;;;;;;;;;;;;;;4980524;28;19977;-67
2023/05/19 12:42:04;;;;;;;;;;;;;;;;;;4981390;28;20399;-68
2023/05/19 12:44:30;;;;;;;;;;;;;;;;;;4980384;28;19926;-67
2023/05/19 12:46:56;;;;;;;;;;;;;;;;;;4980762;28;19983;-68
2023/05/19 12:49:22;;;;;;;;;;;;;;;;;;4976680;28;19926;-69
2023/05/19 12:51:48;;;;;;;;;;;;;;;;;;4979779;28;20393;-70
2023/05/19 12:54:14;;;;;;;;;;;;;;;;;;4962983;28;19943;-65
2023/05/19 12:56:40;;;;;;;;;;;;;;;;;;4968149;28;19976;-65
2023/05/19 12:59:06;;;;;;;;;;;;;;;;;;4972364;28;20383;-65
2023/05/19 13:01:32;;;;;;;;;;;;;;;;;;4980788;28;19926;-66
2023/05/19 13:03:59;;;;;;;;;;;;;;;;;;4980081;28;19926;-66
2023/05/19 13:06:26;;;;;;;;;;;;;;;;;;4969242;28;19996;-66
2023/05/19 13:08:52;;;;;;;;;;;;;;;;;;4972791;28;19925;-66
2023/05/19 13:11:18;;;;;;;;;;;;;;;;;;4981079;28;19926;-63
2023/05/19 13:13:44;;;;;;;;;;;;;;;;;;4965683;28;19930;-65
2023/05/19 13:16:10;;;;;;;;;;;;;;;;;;4979557;28;19980;-65
2023/05/19 13:18:37;;;;;;;;;;;;;;;;;;4980232;28;19929;-65
2023/05/19 13:21:03;;;;;;;;;;;;;;;;;;4971675;28;20012;-65
2023/05/19 13:23:29;;;;;;;;;;;;;;;;;;4980567;28;19961;-66
2023/05/19 13:25:55;;;;;;;;;;;;;;;;;;4975522;28;19968;-66
2023/05/19 13:28:21;;;;;;;;;;;;;;;;;;4978143;28;20363;-65
2023/05/19 13:30:48;;;;;;;;;;;;;;;;;;4981261;28;19949;-66
2023/05/19 13:33:14;;;;;;;;;;;;;;;;;;4981263;28;19977;-65
2023/05/19 13:35:40;;;;;;;;;;;;;;;;;;4983610;28;19965;-65
2023/05/19 13:38:08;;;;;;;;;;;;;;;;;;4984172;28;19926;-66
2023/05/19 13:40:34;;;;;;;;;;;;;;;;;;4977034;28;19922;-66
2023/05/19 13:43:00;;;;;;;;;;;;;;;;;;4979241;28;19925;-66
2023/05/19 13:45:26;;;;;;;;;;;;;;;;;;4979677;28;19922;-66
2023/05/19 13:47:52;;;;;;;;;;;;;;;;;;4975591;28;19929;-65
2023/05/19 13:50:18;;;;;;;;;;;;;;;;;;4961929;28;19926;-66
2023/05/19 13:52:44;;;;;;;;;;;;;;;;;;4970103;28;19922;-66
2023/05/19 13:55:10;;;;;;;;;;;;;;;;;;4968194;28;19945;-66
2023/05/19 13:57:37;;;;;;;;;;;;;;;;;;4966344;28;20467;-65
2023/05/19 14:00:04;;;;;;;;;;;;;;;;;;4982947;28;19964;-68
2023/05/19 14:02:30;;;;;;;;;;;;;;;;;;4983320;28;19930;-66
2023/05/19 14:04:56;;;;;;;;;;;;;;;;;;4983181;28;19926;-66
2023/05/19 14:07:22;;;;;;;;;;;;;;;;;;4983059;28;19932;-67
2023/05/19 14:09:49;;;;;;;;;;;;;;;;;;4982917;28;20234;-65
2023/05/19 14:12:15;;;;;;;;;;;;;;;;;;4983045;28;20031;-66
2023/05/19 14:14:42;;;;;;;;;;;;;;;;;;4981930;28;20375;-66
2023/05/19 14:17:08;;;;;;;;;;;;;;;;;;4981333;28;19933;-68
2023/05/19 14:19:34;;;;;;;;;;;;;;;;;;4982585;28;20008;-66
2023/05/19 14:22:00;;;;;;;;;;;;;;;;;;4983684;28;19933;-66
2023/05/19 14:24:26;;;;;;;;;;;;;;;;;;4975360;28;19922;-67
2023/05/19 14:26:52;;;;;;;;;;;;;;;;;;4980235;28;20399;-66
2023/05/19 14:29:18;;;;;;;;;;;;;;;;;;4982209;28;19925;-67
2023/05/19 14:31:45;;;;;;;;;;;;;;;;;;4982400;28;19925;-67
2023/05/19 14:34:11;;;;;;;;;;;;;;;;;;4982002;28;19992;-67
2023/05/19 14:36:37;;;;;;;;;;;;;;;;;;4982245;28;20302;-67
2023/05/19 14:39:03;;;;;;;;;;;;;;;;;;4980935;28;19925;-66
2023/05/19 14:41:30;;;;;;;;;;;;;;;;;;4959292;28;19925;-67
2023/05/19 14:43:56;;;;;;;;;;;;;;;;;;4971205;28;19926;-67
2023/05/19 14:46:22;;;;;;;;;;;;;;;;;;4964249;28;19930;-68
2023/05/19 14:48:48;;;;;;;;;;;;;;;;;;4974652;28;20450;-67
2023/05/19 14:51:14;;;;;;;;;;;;;;;;;;4982988;28;19922;-67
2023/05/19 14:53:40;;;;;;;;;;;;;;;;;;4981672;28;19925;-68
2023/05/19 14:56:06;;;;;;;;;;;;;;;;;;4972503;28;20402;-67
2023/05/19 14:58:32;;;;;;;;;;;;;;;;;;4974615;28;19984;-66
2023/05/19 15:00:58;;;;;;;;;;;;;;;;;;4966593;28;19965;-67
2023/05/19 15:03:24;;;;;;;;;;;;;;;;;;4966807;28;20380;-66
2023/05/19 15:05:50;;;;;;;;;;;;;;;;;;4960677;28;20037;-70
2023/05/19 15:08:16;;;;;;;;;;;;;;;;;;4978934;28;19926;-67
2023/05/19 15:10:42;;;;;;;;;;;;;;;;;;4963446;28;20392;-67
2023/05/19 15:13:09;;;;;;;;;;;;;;;;;;4972058;28;20366;-67
2023/05/19 15:15:35;;;;;;;;;;;;;;;;;;4965367;28;19922;-66
2023/05/19 15:18:01;;;;;;;;;;;;;;;;;;4966112;28;19985;-68
2023/05/19 15:20:27;;;;;;;;;;;;;;;;;;4969976;28;19969;-69
2023/05/19 15:22:53;;;;;;;;;;;;;;;;;;4974983;28;19922;-68
2023/05/19 15:25:19;;;;;;;;;;;;;;;;;;4972473;28;20184;-66
2023/05/19 15:27:45;;;;;;;;;;;;;;;;;;4979402;28;19922;-67
2023/05/19 15:30:11;;;;;;;;;;;;;;;;;;4969674;28;19968;-66
2023/05/19 15:32:37;;;;;;;;;;;;;;;;;;4970318;28;20391;-64
2023/05/19 15:35:03;;;;;;;;;;;;;;;;;;4970950;28;19972;-64
2023/05/19 15:37:29;;;;;;;;;;;;;;;;;;4971063;28;19964;-63
2023/05/19 15:39:55;;;;;;;;;;;;;;;;;;4972511;28;19980;-64
2023/05/19 15:42:21;;;;;;;;;;;;;;;;;;4967793;28;20025;-64
2023/05/19 15:44:47;;;;;;;;;;;;;;;;;;4955114;28;20364;-63
2023/05/19 15:47:13;;;;;;;;;;;;;;;;;;4972800;28;20043;-65
2023/05/19 15:49:39;;;;;;;;;;;;;;;;;;4971102;28;19926;-64
2023/05/19 15:52:05;;;;;;;;;;;;;;;;;;4970293;28;19922;-64
2023/05/19 15:54:31;;;;;;;;;;;;;;;;;;4976772;28;20607;-64
2023/05/19 15:56:57;;;;;;;;;;;;;;;;;;4979389;28;19937;-64
2023/05/19 15:59:23;;;;;;;;;;;;;;;;;;4980323;28;19930;-64
2023/05/19 16:01:50;;;;;;;;;;;;;;;;;;4976020;28;19926;-64
2023/05/19 16:04:16;;;;;;;;;;;;;;;;;;4974459;28;19926;-64
2023/05/19 16:06:43;;;;;;;;;;;;;;;;;;4982666;28;19968;-63
2023/05/19 16:09:09;;;;;;;;;;;;;;;;;;4975099;28;19932;-63
2023/05/19 16:11:35;;;;;;;;;;;;;;;;;;4973573;28;20291;-63
2023/05/19 16:14:01;;;;;;;;;;;;;;;;;;4975238;28;19922;-65
2023/05/19 16:16:27;;;;;;;;;;;;;;;;;;4978083;28;19922;-64
2023/05/19 16:18:53;;;;;;;;;;;;;;;;;;4981823;28;19929;-64
2023/05/19 16:21:20;;;;;;;;;;;;;;;;;;4982385;28;19921;-64
2023/05/19 16:23:47;;;;;;;;;;;;;;;;;;4980695;28;20009;-65
2023/05/19 16:26:13;;;;;;;;;;;;;;;;;;4982851;28;20376;-65
2023/05/19 16:28:39;;;;;;;;;;;;;;;;;;4979198;28;19930;-65
2023/05/19 16:31:05;;;;;;;;;;;;;;;;;;4969956;28;19928;-64
2023/05/19 16:33:31;;;;;;;;;;;;;;;;;;4977452;28;19930;-64
2023/05/19 16:35:58;;;;;;;;;;;;;;;;;;4967475;28;19932;-64
2023/05/19 16:38:25;;;;;;;;;;;;;;;;;;4969051;28;19922;-64